Catàleg de serveis del Meteocat

Dades de l'estació automàtica Pantà de Darnius - Boadella

?
?
Resum diari 23:00 TU
Dades diàries de l'estació meteorològica
Temperatura mitjana 9.7 °C
Temperatura màxima 14.3 °C 15:08 TU
Temperatura mínima 7.1 °C 6:55 TU
Humitat relativa mitjana 90%
Precipitació acumulada 0.1 mm
Ratxa màxima del vent (10 m) 24.5 km/h - 306º 20:11 TU
Pressió atmosfèrica mitjana 1001.2 hPa
Irradiació solar global 6.7 MJ/m2

El tram horari està expressat en Temps Universal (TU). Cal sumar una hora en horari d'hivern i dues en horari d'estiu per passar a l'hora oficial.

Pantà de Darnius - Boadella

Metadades estació meteorol´gica
Municipi Darnius
Comarca Alt Empordà
Altitud 158 m
Data alta 05.01.1996
Estat actual Operativa
Dades de període
Període
TU
TM
°C
TX
°C
TN
°C
HRM
%
PPT
mm
VVM (10 m)
km/h
DVM (10 m)
graus
VVX (10 m)
km/h
PM
hPa
RS
W/m2
00:00 - 00:30 8.4 8.5 8.3 99 0.0 2.2 32 5.0 1000.8 0
00:30 - 01:00 8.5 8.7 8.3 99 0.0 3.6 329 7.9 1000.8 0
01:00 - 01:30 8.5 8.7 8.2 100 0.1 3.2 327 6.8 1000.8 0
01:30 - 02:00 8.0 8.2 7.9 100 0.0 2.5 136 4.7 1000.7 0
02:00 - 02:30 7.9 8.0 7.7 100 0.0 0.7 127 2.9 1000.6 0
02:30 - 03:00 7.8 7.9 7.7 100 0.0 1.4 161 4.3 1000.4 0
03:00 - 03:30 7.8 8.0 7.7 100 0.0 1.8 20 5.4 1000.3 0
03:30 - 04:00 8.0 8.1 7.9 100 0.0 1.1 263 3.6 1000.3 0
04:00 - 04:30 7.8 8.0 7.5 100 0.0 1.8 231 9.0 1000.4 0
04:30 - 05:00 8.1 8.2 7.8 100 0.0 7.9 297 13.0 1000.4 0
05:00 - 05:30 8.0 8.1 7.9 100 0.0 8.3 304 11.9 1000.5 0
05:30 - 06:00 7.9 8.0 7.8 100 0.0 8.3 300 13.3 1000.6 0
06:00 - 06:30 7.6 7.8 7.5 100 0.0 6.5 308 15.8 1000.6 0
06:30 - 07:00 7.3 7.5 7.1 100 0.0 6.5 323 11.5 1001.0 5
07:00 - 07:30 7.3 7.5 7.2 100 0.0 6.5 305 10.8 1001.3 36
07:30 - 08:00 7.5 7.7 7.4 97 0.0 4.0 321 11.5 1001.5 88
08:00 - 08:30 7.8 8.2 7.6 93 0.0 2.5 57 6.8 1001.6 133
08:30 - 09:00 8.6 8.7 8.3 89 0.0 2.9 9 7.6 1001.7 138
09:00 - 09:30 8.8 9.2 8.5 90 0.0 4.3 300 7.9 1001.8 184
09:30 - 10:00 9.6 9.9 9.3 84 0.0 2.2 349 6.5 1001.9 256
10:00 - 10:30 10.5 11.0 9.9 80 0.0 3.6 23 8.3 1001.9 349
10:30 - 11:00 11.0 11.4 10.3 80 0.0 4.3 165 12.2 1001.7 314
11:00 - 11:30 11.5 12.0 10.6 81 0.0 8.6 176 19.1 1001.5 322
11:30 - 12:00 11.7 11.9 11.5 82 0.0 8.6 160 14.8 1001.1 262
12:00 - 12:30 12.0 12.3 11.8 83 0.0 9.4 148 14.8 1000.7 239
12:30 - 13:00 12.5 12.9 12.2 81 0.0 9.4 151 19.1 1000.5 263
13:00 - 13:30 13.3 14.2 12.8 72 0.0 6.8 196 15.5 1000.3 299
13:30 - 14:00 13.3 13.7 13.0 68 0.0 5.8 240 19.1 1000.2 202
14:00 - 14:30 13.6 13.9 13.2 67 0.0 3.6 298 10.8 1000.0 258
14:30 - 15:00 13.5 14.0 13.2 67 0.0 2.9 316 7.2 999.9 273
15:00 - 15:30 13.5 14.3 12.5 70 0.0 3.6 29 5.8 1000.0 115
15:30 - 16:00 12.2 12.5 11.7 75 0.0 1.8 74 7.2 1000.3 41
16:00 - 16:30 11.5 11.8 11.2 78 0.0 2.5 104 6.5 1000.6 6
16:30 - 17:00 10.7 11.1 10.3 84 0.0 1.1 235 4.0 1000.7 0
17:00 - 17:30 9.9 10.3 9.7 91 0.0 2.9 113 6.8 1000.9 0
17:30 - 18:00 9.9 10.0 9.7 95 0.0 4.7 30 11.2 1001.0 0
18:00 - 18:30 10.1 10.2 9.8 91 0.0 7.6 15 13.3 1001.4 0
18:30 - 19:00 10.1 10.3 10.0 90 0.0 4.7 359 11.2 1001.7 0
19:00 - 19:30 9.8 10.0 9.6 92 0.0 5.4 10 13.0 1002.0 0
19:30 - 20:00 9.7 9.9 9.5 93 0.0 5.0 17 8.6 1002.0 0
20:00 - 20:30 9.7 9.9 9.4 93 0.0 5.8 290 24.5 1002.0 0
20:30 - 21:00 9.1 9.4 8.9 97 0.0 3.6 332 7.9 1001.9 0
21:00 - 21:30 9.3 9.6 9.2 98 0.0 6.1 36 14.4 1002.3 0
21:30 - 22:00 9.3 9.7 9.0 94 0.0 2.9 100 5.4 1002.6 0
22:00 - 22:30 9.0 9.1 8.9 90 0.0 2.9 96 8.6 1003.0 0
22:30 - 23:00 9.1 9.4 8.8 86 0.0 6.5 48 14.0 1003.1 0
23:00 - 23:30 9.0 9.3 8.5 81 0.0 4.3 76 12.6 1003.4 0

Les dades en taronja només han passat un control de qualitat automàtic. Resta pendent la seva validació definitiva.